Time;durP1;ratioP1;P1;durP2;ratioP2;P2;SDS_P1;SDS_P2;PMS_P1;PMS_P2;Temp;Humidity;BMP_temperature;BMP_pressure;BME280_temperature;BME280_humidity;BME280_pressure;Samples;Min_cycle;Max_cycle;Signal;HPM_P1;HPM_P2
2023/04/21 00:00:55;;;;;;;10.63;3.70;;;;;;;41.53;35.56;100774.03;6182507;23;20380;-77
2023/04/21 00:03:26;;;;;;;16.20;4.47;;;;;;;41.61;35.91;100764.19;6184366;23;20376;-77
2023/04/21 00:05:55;;;;;;;14.37;4.13;;;;;;;41.80;35.33;100763.72;6184182;23;20418;-77
2023/04/21 00:08:21;;;;;;;19.30;4.70;;;;;;;41.65;35.26;100762.41;6182433;23;20471;-77
2023/04/21 00:10:47;;;;;;;12.50;3.73;;;;;;;41.77;35.00;100759.75;6184461;23;20360;-77
2023/04/21 00:13:13;;;;;;;15.40;4.50;;;;;;;41.82;34.81;100756.81;6182273;23;20380;-77
2023/04/21 00:15:40;;;;;;;18.43;4.90;;;;;;;41.83;35.33;100755.69;6182777;23;20215;-78
2023/04/21 00:18:06;;;;;;;12.00;4.20;;;;;;;41.62;35.70;100757.63;6182575;23;20384;-77
2023/04/21 00:20:32;;;;;;;15.53;4.40;;;;;;;41.72;35.72;100765.38;6182730;23;20395;-77
2023/04/21 00:22:59;;;;;;;15.50;4.73;;;;;;;41.64;35.74;100760.81;6183968;23;20740;-78
2023/04/21 00:25:25;;;;;;;18.40;4.80;;;;;;;41.47;35.50;100760.97;6183853;23;20411;-77
2023/04/21 00:27:51;;;;;;;14.50;4.20;;;;;;;41.43;35.24;100760.81;6184536;23;20404;-77
2023/04/21 00:30:17;;;;;;;15.50;4.30;;;;;;;41.23;35.55;100748.00;6183535;23;20435;-78
2023/04/21 00:32:43;;;;;;;10.87;2.70;;;;;;;41.43;35.97;100760.81;6184398;23;20385;-77
2023/04/21 00:35:09;;;;;;;15.97;3.87;;;;;;;41.48;36.20;100746.22;6184312;23;20372;-77
2023/04/21 00:37:35;;;;;;;16.40;4.00;;;;;;;41.47;35.36;100741.91;6183626;23;20724;-77
2023/04/21 00:40:03;;;;;;;18.70;4.50;;;;;;;41.32;35.97;100746.00;6184525;23;20378;-77
2023/04/21 00:42:29;;;;;;;10.90;4.33;;;;;;;41.10;36.16;100736.25;6184442;23;20400;-77
2023/04/21 00:44:55;;;;;;;14.63;3.67;;;;;;;41.31;35.45;100726.16;6184321;23;20382;-77
2023/04/21 00:47:21;;;;;;;17.30;4.13;;;;;;;41.41;35.93;100727.69;6184559;23;20837;-77
2023/04/21 00:49:47;;;;;;;17.77;4.37;;;;;;;41.23;35.93;100720.78;6185735;23;20438;-76
2023/04/21 00:52:17;;;;;;;13.57;3.67;;;;;;;41.55;35.22;100708.34;6184783;23;20372;-77
2023/04/21 00:54:43;;;;;;;10.10;4.20;;;;;;;41.43;35.51;100709.09;6184248;23;20376;-78
2023/04/21 00:57:12;;;;;;;21.30;4.27;;;;;;;41.47;35.57;100710.03;6184089;23;20404;-78
2023/04/21 00:59:39;;;;;;;10.57;3.80;;;;;;;41.51;35.76;100705.50;6184006;23;20715;-77
2023/04/21 01:02:05;;;;;;;14.17;4.43;;;;;;;41.39;35.38;100712.84;6184110;23;20482;-77
2023/04/21 01:04:35;;;;;;;16.20;4.10;;;;;;;41.32;35.63;100710.63;6184344;23;20376;-78
2023/04/21 01:07:04;;;;;;;10.63;4.03;;;;;;;41.17;36.02;100703.84;6184072;23;20442;-78
2023/04/21 01:09:31;;;;;;;15.07;4.23;;;;;;;41.41;35.76;100699.69;6184142;23;20439;-77
2023/04/21 01:12:03;;;;;;;11.23;4.17;;;;;;;41.46;35.62;100704.91;6183919;23;20404;-77
2023/04/21 01:14:29;;;;;;;9.07;3.23;;;;;;;41.66;35.42;100704.06;6184067;23;20380;-78
2023/04/21 01:16:56;;;;;;;12.50;3.10;;;;;;;41.51;35.74;100702.78;6183686;23;20423;-78
2023/04/21 01:19:23;;;;;;;15.83;4.20;;;;;;;41.61;35.48;100699.63;6183993;23;20380;-77
2023/04/21 01:21:52;;;;;;;19.33;4.30;;;;;;;41.24;35.59;100708.75;6184139;23;20381;-77
2023/04/21 01:24:19;;;;;;;8.43;3.50;;;;;;;41.23;35.98;100699.00;6183865;23;20404;-75
2023/04/21 01:26:48;;;;;;;13.07;3.80;;;;;;;41.42;36.29;100701.25;6184025;23;20942;-76
2023/04/21 01:29:17;;;;;;;17.73;5.10;;;;;;;41.40;36.05;100693.44;6183593;23;20448;-76
2023/04/21 01:31:46;;;;;;;10.50;3.40;;;;;;;41.44;35.80;100699.03;6183865;23;20499;-76
2023/04/21 01:34:12;;;;;;;15.80;4.47;;;;;;;41.32;36.52;100706.00;6183806;23;20499;-76
2023/04/21 01:36:38;;;;;;;15.73;3.60;;;;;;;41.36;36.35;100695.22;6183683;23;20405;-76
2023/04/21 01:39:04;;;;;;;16.67;5.13;;;;;;;41.51;35.98;100691.91;6183823;23;20411;-76
2023/04/21 01:41:30;;;;;;;11.40;3.90;;;;;;;41.24;35.87;100690.50;6183837;23;20385;-76
2023/04/21 01:43:56;;;;;;;17.77;5.33;;;;;;;41.06;35.61;100687.13;6183600;23;20415;-77
2023/04/21 01:46:22;;;;;;;16.67;4.17;;;;;;;41.31;36.11;100692.69;6183762;23;20854;-76
2023/04/21 01:48:48;;;;;;;7.90;2.93;;;;;;;41.17;35.67;100682.06;6183583;23;20388;-76
2023/04/21 01:51:14;;;;;;;12.47;4.10;;;;;;;41.34;35.73;100681.16;6183754;23;20491;-76
2023/04/21 01:53:39;;;;;;;10.73;3.17;;;;;;;41.15;35.94;100676.19;6183400;23;20443;-76
2023/04/21 01:56:06;;;;;;;14.73;5.63;;;;;;;41.23;36.59;100669.84;6183643;23;20380;-77
2023/04/21 01:58:32;;;;;;;11.03;3.80;;;;;;;40.95;36.16;100666.09;6183437;23;20390;-77
2023/04/21 02:00:58;;;;;;;17.93;4.47;;;;;;;41.00;36.20;100647.63;6183617;23;20459;-77
2023/04/21 02:03:24;;;;;;;11.67;2.70;;;;;;;41.07;36.04;100644.41;6183250;23;20384;-76
2023/04/21 02:05:50;;;;;;;13.00;4.30;;;;;;;41.07;37.02;100639.75;6183553;23;20408;-77
2023/04/21 02:08:16;;;;;;;8.77;3.57;;;;;;;41.17;36.61;100641.25;6183384;23;20419;-76
2023/04/21 02:10:42;;;;;;;16.23;5.00;;;;;;;41.12;36.20;100635.22;6183693;23;20373;-77
2023/04/21 02:13:08;;;;;;;11.90;3.53;;;;;;;41.05;36.18;100633.03;6183322;23;20373;-77
2023/04/21 02:15:36;;;;;;;16.30;5.03;;;;;;;41.23;36.49;100620.06;6184030;23;20715;-76
2023/04/21 02:18:02;;;;;;;16.20;4.70;;;;;;;41.34;35.65;100611.19;6183428;23;20455;-76
2023/04/21 02:20:28;;;;;;;10.63;3.73;;;;;;;41.21;36.17;100606.81;6183554;23;20372;-76
2023/04/21 02:22:54;;;;;;;11.63;3.90;;;;;;;41.28;36.41;100607.06;6183115;23;20720;-76
2023/04/21 02:25:20;;;;;;;10.33;3.57;;;;;;;41.04;36.51;100602.31;6183706;23;20435;-76
2023/04/21 02:27:46;;;;;;;20.30;4.53;;;;;;;41.00;36.41;100606.03;6182932;23;20769;-76
2023/04/21 02:30:12;;;;;;;9.53;3.13;;;;;;;40.76;36.65;100604.78;6183119;23;20436;-76
2023/04/21 02:32:38;;;;;;;19.57;4.97;;;;;;;41.03;36.40;100608.88;6184008;23;20384;-77
2023/04/21 02:35:04;;;;;;;10.00;3.23;;;;;;;41.00;36.14;100606.03;6183476;23;20381;-76
2023/04/21 02:37:30;;;;;;;19.17;4.03;;;;;;;40.80;36.49;100602.97;6183355;23;20381;-76
2023/04/21 02:39:56;;;;;;;11.33;3.73;;;;;;;41.14;36.30;100608.50;6183016;23;20849;-77
2023/04/21 02:42:22;;;;;;;13.27;2.87;;;;;;;40.97;36.83;100604.78;6183235;23;20716;-76
2023/04/21 02:44:48;;;;;;;7.47;2.60;;;;;;;41.06;36.75;100597.31;6182806;23;20387;-76
2023/04/21 02:47:15;;;;;;;14.77;4.57;;;;;;;41.20;36.39;100612.59;6183010;23;20768;-78
2023/04/21 02:49:41;;;;;;;11.00;3.67;;;;;;;41.07;36.16;100606.31;6183395;23;20454;-78
2023/04/21 02:52:07;;;;;;;12.87;3.30;;;;;;;41.06;36.43;100613.66;6182875;23;20380;-78
2023/04/21 02:54:33;;;;;;;13.47;3.40;;;;;;;41.07;36.66;100607.09;6183542;23;20395;-77
2023/04/21 02:57:00;;;;;;;14.10;4.03;;;;;;;41.15;36.62;100608.16;6183067;23;20414;-77
2023/04/21 02:59:26;;;;;;;19.17;4.17;;;;;;;41.02;36.62;100604.59;6185247;23;20809;-77
2023/04/21 03:01:52;;;;;;;10.33;3.53;;;;;;;41.08;36.26;100605.19;6183145;23;20376;-77
2023/04/21 03:04:18;;;;;;;9.67;4.20;;;;;;;40.95;35.87;100604.34;6183120;23;20522;-77
2023/04/21 03:06:44;;;;;;;14.43;7.60;;;;;;;40.98;35.84;100611.03;6183072;23;20424;-77
2023/04/21 03:09:10;;;;;;;18.50;3.93;;;;;;;41.04;35.72;100601.53;6182609;23;20527;-77
2023/04/21 03:11:36;;;;;;;12.40;4.80;;;;;;;40.96;36.09;100591.53;6183069;23;20383;-77
2023/04/21 03:14:02;;;;;;;10.53;2.67;;;;;;;41.17;35.71;100588.75;6183334;23;20384;-77
2023/04/21 03:16:28;;;;;;;12.20;3.30;;;;;;;41.17;35.74;100580.59;6182887;23;20377;-77
2023/04/21 03:18:54;;;;;;;19.63;4.93;;;;;;;41.21;36.18;100586.97;6182776;23;20438;-78
2023/04/21 03:21:20;;;;;;;12.53;3.57;;;;;;;41.16;36.02;100579.81;6183240;23;20778;-79
2023/04/21 03:23:46;;;;;;;22.33;5.23;;;;;;;41.30;35.95;100579.50;6183086;23;20484;-77
2023/04/21 03:26:12;;;;;;;9.47;3.00;;;;;;;41.25;36.51;100583.25;6182608;23;20440;-77
2023/04/21 03:28:38;;;;;;;17.27;4.53;;;;;;;41.34;35.65;100580.44;6182616;23;20404;-77
2023/04/21 03:31:04;;;;;;;9.13;3.70;;;;;;;41.27;34.93;100578.25;6182506;23;20439;-77
2023/04/21 03:33:30;;;;;;;13.83;3.57;;;;;;;41.31;34.75;100576.47;6183011;23;20387;-77
2023/04/21 03:35:56;;;;;;;13.13;4.20;;;;;;;41.27;34.54;100585.63;6182604;23;20408;-77
2023/04/21 03:38:22;;;;;;;9.73;3.50;;;;;;;41.16;35.17;100577.06;6182722;23;20380;-78
2023/04/21 03:40:48;;;;;;;19.33;6.87;;;;;;;41.42;35.53;100578.75;6182898;23;20376;-77
2023/04/21 03:43:14;;;;;;;12.10;3.20;;;;;;;41.41;36.04;100574.44;6182873;23;20395;-77
2023/04/21 03:45:40;;;;;;;10.30;3.37;;;;;;;41.25;35.49;100591.41;6182761;23;20507;-77
2023/04/21 03:48:06;;;;;;;12.93;3.63;;;;;;;41.26;35.47;100586.75;6182704;23;20899;-77
2023/04/21 03:50:32;;;;;;;12.83;4.57;;;;;;;41.47;35.22;100586.72;6182621;23;20379;-77
2023/04/21 03:52:57;;;;;;;15.63;4.53;;;;;;;41.45;35.11;100597.16;6182715;23;20373;-77
2023/04/21 03:55:23;;;;;;;11.03;5.27;;;;;;;41.54;35.22;100592.41;6181431;23;20786;-79
2023/04/21 03:57:49;;;;;;;14.73;3.23;;;;;;;41.18;34.83;100610.19;6184815;23;20852;-77
2023/04/21 04:00:15;;;;;;;8.97;3.43;;;;;;;41.13;35.63;100613.13;6184776;23;20793;-77
2023/04/21 04:02:42;;;;;;;11.37;3.63;;;;;;;41.00;35.69;100606.03;6184976;23;20703;-77
2023/04/21 04:05:08;;;;;;;13.90;3.60;;;;;;;41.24;35.67;100611.56;6184691;23;20411;-77
2023/04/21 04:07:35;;;;;;;11.10;4.43;;;;;;;41.29;35.92;100624.97;6184755;23;20501;-77
2023/04/21 04:10:01;;;;;;;11.00;4.53;;;;;;;41.19;35.37;100621.88;6184590;23;20717;-78
2023/04/21 04:12:27;;;;;;;12.87;3.33;;;;;;;41.08;35.20;100624.22;6184823;23;20876;-77
2023/04/21 04:14:53;;;;;;;14.27;3.70;;;;;;;41.18;35.47;100631.16;6184490;23;20376;-78
2023/04/21 04:17:19;;;;;;;14.20;3.53;;;;;;;41.36;35.73;100623.66;6184491;23;20438;-78
2023/04/21 04:19:45;;;;;;;9.20;3.20;;;;;;;41.29;35.67;100635.84;6185209;23;20446;-77
2023/04/21 04:22:10;;;;;;;20.10;5.10;;;;;;;41.47;35.80;100622.91;6184687;23;20384;-77
2023/04/21 04:24:36;;;;;;;15.10;5.67;;;;;;;41.34;35.58;100637.63;6184764;23;20860;-77
2023/04/21 04:27:02;;;;;;;17.07;4.63;;;;;;;41.19;35.96;100632.75;6184420;23;20420;-78
2023/04/21 04:29:29;;;;;;;18.17;3.60;;;;;;;41.32;36.03;100637.94;6184338;23;20471;-77
2023/04/21 04:31:56;;;;;;;11.27;3.57;;;;;;;41.13;36.49;100643.06;6184539;23;20380;-77
2023/04/21 04:34:22;;;;;;;14.00;4.20;;;;;;;41.45;35.68;100640.72;6184399;23;20411;-78
2023/04/21 04:36:50;;;;;;;20.37;4.50;;;;;;;41.31;35.68;100649.94;6184426;23;20384;-78
2023/04/21 04:39:16;;;;;;;20.60;3.53;;;;;;;41.24;35.70;100648.88;6184474;23;20498;-77
2023/04/21 04:41:42;;;;;;;11.90;3.43;;;;;;;41.16;36.23;100655.19;6184680;23;20376;-77
2023/04/21 04:44:08;;;;;;;13.83;3.97;;;;;;;41.23;36.21;100656.25;6186330;23;20740;-77
2023/04/21 04:46:34;;;;;;;11.77;3.23;;;;;;;41.45;35.00;100666.00;6184297;23;20966;-77
2023/04/21 04:49:00;;;;;;;11.07;3.97;;;;;;;41.32;34.73;100661.63;6184202;23;20384;-77
2023/04/21 04:51:27;;;;;;;17.67;4.30;;;;;;;41.33;34.44;100660.53;6184348;23;20400;-77
2023/04/21 04:53:53;;;;;;;12.73;4.77;;;;;;;41.33;35.19;100663.25;6184318;23;20384;-77
2023/04/21 04:56:18;;;;;;;11.33;3.70;;;;;;;41.45;34.92;100671.47;6184088;23;20395;-78
2023/04/21 04:58:47;;;;;;;19.03;4.30;;;;;;;41.36;35.29;100675.38;6184189;23;20436;-77
2023/04/21 05:01:17;;;;;;;19.90;4.00;;;;;;;41.27;35.75;100684.41;6184237;23;20388;-77
2023/04/21 05:03:44;;;;;;;12.40;3.77;;;;;;;41.12;35.57;100689.66;6184202;23;20376;-77
2023/04/21 05:06:10;;;;;;;10.07;3.47;;;;;;;41.20;35.09;100695.03;6183870;23;20436;-78
2023/04/21 05:08:36;;;;;;;9.90;3.30;;;;;;;41.32;35.13;100692.41;6183834;23;20384;-78
2023/04/21 05:11:02;;;;;;;13.30;4.40;;;;;;;41.33;35.44;100683.09;6184220;23;20434;-78
2023/04/21 05:13:28;;;;;;;11.93;4.50;;;;;;;41.42;35.17;100688.44;6183588;23;20392;-77
2023/04/21 05:16:01;;;;;;;15.43;3.10;;;;;;;41.19;35.62;100692.63;6183866;23;20384;-77
2023/04/21 05:18:27;;;;;;;11.63;3.20;;;;;;;41.28;35.88;100691.44;6184040;23;20384;-76
2023/04/21 05:20:53;;;;;;;15.23;4.33;;;;;;;41.17;35.55;100689.44;6183923;23;20384;-77
2023/04/21 05:23:19;;;;;;;11.47;5.63;;;;;;;41.19;35.62;100698.06;6183734;23;20390;-77
2023/04/21 05:25:46;;;;;;;11.70;2.70;;;;;;;41.04;35.79;100691.31;6183641;23;20939;-76
2023/04/21 05:28:12;;;;;;;21.63;5.07;;;;;;;41.24;35.61;100689.69;6180075;23;20431;-79
2023/04/21 05:30:38;;;;;;;17.83;5.60;;;;;;;41.20;35.34;100695.03;6183426;23;20436;-75
2023/04/21 05:33:04;;;;;;;13.03;5.10;;;;;;;41.07;35.56;100693.38;6183847;23;20571;-77
2023/04/21 05:35:30;;;;;;;14.80;4.13;;;;;;;41.16;35.32;100698.75;6183420;23;20774;-76
2023/04/21 05:37:56;;;;;;;10.33;4.27;;;;;;;41.11;35.74;100693.50;6182750;23;20376;-77
2023/04/21 05:40:22;;;;;;;12.73;4.07;;;;;;;41.25;35.13;100697.56;6185058;23;20699;-76
2023/04/21 05:42:48;;;;;;;21.10;4.70;;;;;;;41.27;35.86;100689.84;6182749;23;20388;-78
2023/04/21 05:45:14;;;;;;;12.23;3.93;;;;;;;41.22;36.04;100691.97;6183311;23;20380;-77
2023/04/21 05:47:40;;;;;;;20.50;4.90;;;;;;;41.35;35.60;100699.09;6184050;23;20451;-77
2023/04/21 05:50:07;;;;;;;14.40;4.67;;;;;;;41.26;35.59;100699.16;6183647;23;20372;-77
2023/04/21 05:52:33;;;;;;;27.87;5.40;;;;;;;41.19;35.03;100698.88;6183075;23;20406;-76
2023/04/21 05:55:00;;;;;;;20.17;6.93;;;;;;;41.08;35.70;100700.41;6183581;23;20380;-78
2023/04/21 05:57:26;;;;;;;17.17;4.00;;;;;;;41.37;35.65;100704.19;6183641;23;20392;-77
2023/04/21 05:59:52;;;;;;;10.93;3.93;;;;;;;41.20;36.10;100697.75;6183620;23;20380;-77
2023/04/21 06:02:18;;;;;;;13.70;3.57;;;;;;;41.27;35.37;100706.19;6182279;23;20384;-77
2023/04/21 06:04:44;;;;;;;10.17;3.27;;;;;;;41.14;35.82;100703.72;6183530;23;20384;-77
2023/04/21 06:07:12;;;;;;;10.63;4.50;;;;;;;41.06;36.05;100699.94;6184126;23;20885;-78
2023/04/21 06:09:39;;;;;;;9.60;3.63;;;;;;;41.12;35.41;100698.59;6183575;23;20733;-77
2023/04/21 06:12:05;;;;;;;18.23;3.60;;;;;;;41.19;35.04;100690.72;6183508;23;20391;-78
2023/04/21 06:14:31;;;;;;;9.80;3.60;;;;;;;41.36;35.73;100694.44;6183106;23;20475;-77
2023/04/21 06:16:58;;;;;;;10.40;3.70;;;;;;;41.28;35.69;100691.44;6183098;23;20419;-77
2023/04/21 06:19:24;;;;;;;12.53;4.50;;;;;;;41.48;35.83;100694.47;6185170;23;20357;-77
2023/04/21 06:21:50;;;;;;;16.10;4.70;;;;;;;41.51;35.22;100689.19;6182396;23;20384;-77
2023/04/21 06:24:24;;;;;;;9.43;3.97;;;;;;;41.61;35.61;100699.63;6183140;23;20839;-77
2023/04/21 06:26:52;;;;;;;14.20;3.87;;;;;;;41.47;35.87;100693.69;6183034;23;20424;-76
2023/04/21 06:29:19;;;;;;;15.20;4.27;;;;;;;41.36;36.28;100694.44;6182093;23;20451;-78
2023/04/21 06:31:45;;;;;;;14.10;4.13;;;;;;;41.27;35.87;100700.72;6182890;23;20432;-77
2023/04/21 06:34:11;;;;;;;11.67;3.43;;;;;;;41.49;35.75;100704.25;6183383;23;20869;-76
2023/04/21 06:36:37;;;;;;;21.70;4.07;;;;;;;41.48;35.78;100716.25;6183370;23;20404;-76
2023/04/21 06:39:03;;;;;;;16.93;4.20;;;;;;;41.37;35.68;100709.63;6183140;23;20376;-77
2023/04/21 06:41:29;;;;;;;16.70;2.90;;;;;;;41.17;36.30;100713.94;6183304;23;20404;-77
2023/04/21 06:43:55;;;;;;;12.50;4.00;;;;;;;41.40;35.96;100717.94;6183236;23;20403;-76
2023/04/21 06:46:21;;;;;;;12.57;4.87;;;;;;;41.52;35.94;100720.72;6183269;23;20435;-76
2023/04/21 06:48:47;;;;;;;26.90;4.30;;;;;;;41.46;35.73;100713.88;6183326;23;20414;-76
2023/04/21 06:51:13;;;;;;;11.77;3.90;;;;;;;41.54;35.02;100725.81;6182998;23;20376;-76
2023/04/21 06:53:39;;;;;;;18.93;4.00;;;;;;;41.44;34.86;100724.31;6183112;23;20751;-76
2023/04/21 06:56:05;;;;;;;15.60;5.37;;;;;;;41.44;35.22;100727.03;6183152;23;20380;-76
2023/04/21 06:58:31;;;;;;;7.03;2.90;;;;;;;41.55;35.26;100732.84;6182496;23;20376;-76
2023/04/21 07:00:57;;;;;;;9.00;2.70;;;;;;;41.39;35.27;100729.16;6183139;23;20853;-76
2023/04/21 07:03:23;;;;;;;15.10;4.63;;;;;;;41.36;35.20;100729.81;6184958;23;20751;-76
2023/04/21 07:05:50;;;;;;;16.43;3.67;;;;;;;41.16;35.85;100729.47;6183068;23;20420;-76
2023/04/21 07:08:15;;;;;;;39.13;6.40;;;;;;;41.15;35.31;100733.31;6183004;23;20373;-77
2023/04/21 07:10:41;;;;;;;13.83;4.53;;;;;;;41.49;34.74;100737.72;6182573;23;20376;-77
2023/04/21 07:13:07;;;;;;;23.87;11.23;;;;;;;41.32;35.27;100735.94;6182724;23;20380;-76
2023/04/21 07:15:33;;;;;;;53.63;22.30;;;;;;;41.38;35.42;100731.09;6182590;23;20380;-76
2023/04/21 07:17:59;;;;;;;24.90;14.40;;;;;;;41.50;35.83;100735.81;6182923;23;20908;-76
2023/04/21 07:20:25;;;;;;;28.63;17.67;;;;;;;41.45;35.91;100744.16;6182698;23;20376;-75
2023/04/21 07:22:51;;;;;;;29.50;22.80;;;;;;;41.64;34.73;100751.84;6183562;23;20415;-76
2023/04/21 07:25:17;;;;;;;47.87;42.83;;;;;;;41.59;35.12;100750.91;6182742;23;20380;-77
2023/04/21 07:30:28;;;;;;;25.07;18.10;;;;;;;41.48;34.72;100762.56;6184289;23;20527;-77
2023/04/21 07:32:54;;;;;;;12.97;6.77;;;;;;;41.49;35.68;100755.97;6182732;23;20376;-76
2023/04/21 07:35:21;;;;;;;19.53;13.77;;;;;;;41.80;35.36;100764.50;6182772;23;20718;-76
2023/04/21 07:37:46;;;;;;;39.13;20.20;;;;;;;41.66;34.83;100766.72;6184003;23;20372;-75
2023/04/21 07:40:13;;;;;;;29.80;17.33;;;;;;;41.81;35.01;100768.06;6182808;23;20383;-75
2023/04/21 07:42:39;;;;;;;30.50;14.20;;;;;;;41.93;34.85;100781.72;6183381;23;20387;-76
2023/04/21 07:45:05;;;;;;;23.10;14.40;;;;;;;41.86;34.80;100781.44;6183361;23;20384;-76
2023/04/21 07:47:31;;;;;;;20.03;13.97;;;;;;;42.03;35.22;100786.72;6182209;23;20754;-74
2023/04/21 07:49:57;;;;;;;22.90;12.10;;;;;;;41.93;35.37;100783.63;6182684;23;20837;-76
2023/04/21 07:52:23;;;;;;;19.80;8.93;;;;;;;41.96;34.69;100797.38;6182233;23;20384;-75
2023/04/21 07:54:50;;;;;;;15.30;5.27;;;;;;;41.78;34.47;100799.47;6183175;23;20384;-75
2023/04/21 07:57:16;;;;;;;11.87;4.33;;;;;;;41.92;34.59;100801.09;6158162;23;20399;-75
2023/04/21 07:59:42;;;;;;;14.47;5.50;;;;;;;41.92;35.04;100812.00;6182902;23;20436;-75
2023/04/21 08:02:08;;;;;;;10.57;5.60;;;;;;;41.91;34.92;100808.50;6182963;23;20385;-75
2023/04/21 08:04:34;;;;;;;11.60;4.80;;;;;;;41.92;35.09;100812.00;6182696;23;20388;-75
2023/04/21 08:07:00;;;;;;;14.20;4.40;;;;;;;41.98;35.05;100814.19;6182239;23;20479;-76
2023/04/21 08:09:26;;;;;;;15.63;6.33;;;;;;;42.12;34.79;100811.97;6180789;23;20383;-76
2023/04/21 08:11:53;;;;;;;17.13;3.73;;;;;;;42.16;34.64;100820.28;6182373;23;20380;-75
2023/04/21 08:14:20;;;;;;;9.93;3.07;;;;;;;42.04;34.81;100826.47;6182585;23;20447;-75
2023/04/21 08:16:46;;;;;;;10.93;3.80;;;;;;;42.07;34.08;100836.72;6181029;23;20383;-75
2023/04/21 08:19:12;;;;;;;14.10;5.40;;;;;;;42.30;34.62;100828.19;6182910;23;20387;-75
2023/04/21 08:21:38;;;;;;;10.43;4.43;;;;;;;42.26;34.44;100832.72;6182174;23;20431;-75
2023/04/21 08:24:04;;;;;;;17.63;4.23;;;;;;;42.22;34.49;100839.97;6181660;23;20384;-75
2023/04/21 08:26:32;;;;;;;13.43;5.27;;;;;;;42.20;34.76;100834.06;6182221;23;20514;-75
2023/04/21 08:29:00;;;;;;;13.03;4.17;;;;;;;42.39;34.91;100837.84;6182266;23;20888;-75
2023/04/21 08:31:26;;;;;;;17.67;4.37;;;;;;;42.36;34.66;100838.53;6181545;23;20963;-75
2023/04/21 08:33:53;;;;;;;16.43;3.83;;;;;;;42.36;34.37;100846.72;6181911;23;20769;-76
2023/04/21 08:36:19;;;;;;;13.57;5.23;;;;;;;42.26;34.78;100847.13;6182105;23;20442;-75
2023/04/21 08:38:45;;;;;;;23.17;5.57;;;;;;;42.06;34.83;100853.41;6184142;23;20349;-76
2023/04/21 08:41:12;;;;;;;15.47;3.60;;;;;;;42.40;34.36;100857.72;6182216;23;20475;-76
2023/04/21 08:43:38;;;;;;;14.40;3.70;;;;;;;42.35;34.69;100858.72;6183589;23;20400;-75
2023/04/21 08:46:07;;;;;;;10.60;3.40;;;;;;;42.45;34.68;100856.72;6182889;23;20431;-75
2023/04/21 08:48:37;;;;;;;8.60;3.27;;;;;;;42.40;34.81;100865.91;6184097;23;20430;-76
2023/04/21 08:51:08;;;;;;;10.37;3.90;;;;;;;42.19;35.20;100855.06;6184161;23;20404;-76
2023/04/21 08:53:35;;;;;;;15.23;3.33;;;;;;;42.56;34.88;100853.22;6184007;23;20385;-76
2023/04/21 08:56:02;;;;;;;10.33;4.00;;;;;;;42.47;34.67;100860.69;6184063;23;20389;-76
2023/04/21 08:58:28;;;;;;;13.73;4.70;;;;;;;42.50;34.26;100876.38;6185608;23;20698;-75
2023/04/21 09:00:54;;;;;;;13.70;4.50;;;;;;;42.63;34.41;100877.22;6183470;23;20439;-75
2023/04/21 09:03:24;;;;;;;14.93;3.93;;;;;;;42.55;34.13;100886.28;6183954;23;20384;-75
2023/04/21 09:05:58;;;;;;;11.97;3.70;;;;;;;42.53;33.92;100889.34;6183977;23;20428;-75
2023/04/21 09:08:26;;;;;;;16.40;6.40;;;;;;;42.68;33.39;100887.13;6182745;23;20372;-77
2023/04/21 09:10:53;;;;;;;11.00;3.73;;;;;;;42.60;33.58;100892.34;6181998;23;20456;-77
2023/04/21 09:13:19;;;;;;;19.40;6.00;;;;;;;42.65;33.49;100896.78;6181833;23;20399;-76
2023/04/21 09:15:48;;;;;;;15.27;6.03;;;;;;;42.64;33.45;100892.47;6181829;23;20463;-77
2023/04/21 09:18:23;;;;;;;19.53;5.47;;;;;;;42.71;33.55;100883.72;6182015;23;20885;-77
2023/04/21 09:20:51;;;;;;;12.03;5.23;;;;;;;42.82;32.99;100880.22;6181369;23;20391;-77
2023/04/21 09:23:19;;;;;;;14.60;5.20;;;;;;;42.76;33.36;100883.50;6183603;23;20482;-76
2023/04/21 09:25:45;;;;;;;14.70;4.30;;;;;;;42.71;33.71;100879.06;6183083;22;20458;-75
2023/04/21 09:28:13;;;;;;;15.37;5.20;;;;;;;42.91;33.20;100889.09;6183506;23;20448;-79
2023/04/21 09:30:41;;;;;;;16.07;5.10;;;;;;;42.72;33.90;100877.91;6183491;23;20418;-75
2023/04/21 09:33:16;;;;;;;18.30;5.17;;;;;;;42.82;33.76;100882.94;6183740;23;20388;-75
2023/04/21 09:35:42;;;;;;;10.30;4.00;;;;;;;42.69;33.91;100872.34;6185544;23;20364;-75
2023/04/21 09:38:12;;;;;;;13.63;3.80;;;;;;;42.77;33.57;100876.91;6183583;23;20500;-75
2023/04/21 09:40:39;;;;;;;16.83;4.87;;;;;;;42.86;33.45;100874.88;6184069;23;20431;-76
2023/04/21 09:43:05;;;;;;;11.97;3.30;;;;;;;42.82;33.78;100871.22;6183362;23;20384;-76
2023/04/21 09:45:32;;;;;;;13.70;3.67;;;;;;;42.78;34.06;100860.19;6183153;23;20449;-75
2023/04/21 09:48:00;;;;;;;13.93;4.20;;;;;;;42.65;34.44;100862.09;6183935;23;20400;-75
2023/04/21 09:50:28;;;;;;;13.13;3.10;;;;;;;42.76;34.63;100862.47;6183438;23;20391;-75
2023/04/21 09:52:56;;;;;;;18.20;3.50;;;;;;;42.52;34.82;100873.31;6183543;23;20456;-75
2023/04/21 09:55:27;;;;;;;13.20;3.70;;;;;;;42.76;34.63;100870.66;6185733;23;20451;-75
2023/04/21 09:57:58;;;;;;;13.60;4.60;;;;;;;42.78;34.60;100871.09;6183719;23;20459;-76
2023/04/21 10:00:28;;;;;;;8.47;3.50;;;;;;;42.92;34.28;100874.31;6183523;23;20396;-75
2023/04/21 10:02:57;;;;;;;16.23;3.77;;;;;;;43.01;34.10;100881.59;6183747;23;20783;-75
2023/04/21 10:05:23;;;;;;;14.50;3.53;;;;;;;42.93;34.00;100886.81;6182959;23;20399;-75
2023/04/21 10:07:49;;;;;;;9.50;4.30;;;;;;;42.98;34.22;100879.53;6181352;23;20995;-75
2023/04/21 10:10:27;;;;;;;15.87;4.70;;;;;;;42.82;33.77;100882.13;6183262;23;20416;-75
2023/04/21 10:12:53;;;;;;;10.67;3.47;;;;;;;42.95;34.05;100882.94;6185288;23;20360;-76
2023/04/21 10:15:34;;;;;;;15.83;5.00;;;;;;;42.83;34.00;100887.25;6183243;23;20737;-75
2023/04/21 10:18:18;;;;;;;9.97;3.23;;;;;;;42.87;34.14;100884.66;6185184;23;20357;-75
2023/04/21 10:20:57;;;;;;;12.57;3.47;;;;;;;42.98;34.06;100885.00;6182737;23;20438;-75
2023/04/21 10:23:27;;;;;;;14.47;4.57;;;;;;;43.08;33.90;100873.63;6183035;23;20391;-76
2023/04/21 10:26:00;;;;;;;17.60;5.77;;;;;;;43.16;34.20;100870.81;6182800;23;20391;-76
2023/04/21 10:28:42;;;;;;;12.80;3.57;;;;;;;43.02;34.16;100875.81;6184919;23;20396;-75
2023/04/21 10:31:31;;;;;;;8.50;3.03;;;;;;;43.11;34.33;100873.75;6182800;23;20470;-76
2023/04/21 10:34:07;;;;;;;7.30;2.80;;;;;;;43.14;33.91;100873.06;6182830;23;20451;-76
2023/04/21 10:36:53;;;;;;;8.20;3.10;;;;;;;42.99;34.70;100865.59;6183050;23;20378;-76
2023/04/21 10:39:34;;;;;;;11.43;3.17;;;;;;;43.20;34.35;100868.16;6167187;23;20408;-76
2023/04/21 10:42:12;;;;;;;14.17;5.00;;;;;;;42.93;34.88;100870.44;6182827;23;20400;-76
2023/04/21 10:44:42;;;;;;;17.53;5.47;;;;;;;42.95;34.18;100859.16;6183084;23;20923;-76
2023/04/21 10:47:08;;;;;;;14.30;3.97;;;;;;;43.17;34.42;100860.69;6182620;23;20423;-77
2023/04/21 10:49:39;;;;;;;11.33;3.17;;;;;;;43.12;34.41;100864.44;6182488;23;20916;-77
2023/04/21 10:52:07;;;;;;;11.53;4.40;;;;;;;43.06;34.37;100857.63;6182896;23;20849;-76
2023/04/21 10:54:40;;;;;;;11.63;3.07;;;;;;;43.13;34.39;100857.03;6182973;23;20388;-76
2023/04/21 10:57:08;;;;;;;9.23;3.50;;;;;;;42.97;34.49;100851.47;6182788;23;20379;-77
2023/04/21 10:59:35;;;;;;;9.50;4.17;;;;;;;43.07;33.85;100851.00;6182874;23;20514;-76
2023/04/21 11:02:06;;;;;;;9.57;3.00;;;;;;;43.06;34.32;100845.91;6183225;23;20408;-77
2023/04/21 11:04:32;;;;;;;7.93;2.73;;;;;;;42.92;33.71;100843.50;6183139;23;20411;-77
2023/04/21 11:07:13;;;;;;;14.10;4.53;;;;;;;42.88;33.81;100842.56;6182286;23;20459;-77
2023/04/21 11:09:40;;;;;;;14.70;4.30;;;;;;;42.85;34.20;100832.38;6182654;23;20463;-77
2023/04/21 11:12:11;;;;;;;11.57;3.30;;;;;;;42.96;33.72;100838.94;6182773;23;20384;-77
2023/04/21 11:14:40;;;;;;;10.03;3.40;;;;;;;43.00;33.87;100828.16;6173132;23;20388;-77
2023/04/21 11:17:11;;;;;;;12.27;3.43;;;;;;;43.11;33.26;100818.38;6184862;23;20392;-77
2023/04/21 11:19:38;;;;;;;10.77;2.83;;;;;;;43.04;32.79;100818.16;6182875;23;20784;-77